Time;durP1;ratioP1;P1;durP2;ratioP2;P2;SDS_P1;SDS_P2;PMS_P1;PMS_P2;Temp;Humidity;BMP_temperature;BMP_pressure;BME280_temperature;BME280_humidity;BME280_pressure;Samples;Min_cycle;Max_cycle;Signal;HPM_P1;HPM_P2
2022/12/15 00:41:01;;;;;;;4.97;2.35;;;;;;;;;;5016175;28;20036;-73
2022/12/15 00:43:31;;;;;;;10.13;3.15;;;;;;;;;;5015322;28;20109;-73
2022/12/15 00:48:40;;;;;;;10.13;2.90;;;;;;;;;;5019076;28;20061;-72
2022/12/15 00:51:06;;;;;;;6.80;3.70;;;;;;;;;;5016043;28;20041;-73
2022/12/15 01:21:01;;;;;;;7.07;3.90;;;;;;;;;;5009985;28;20077;-73
2022/12/15 01:23:26;;;;;;;8.13;3.90;;;;;;;;;;5015037;28;20026;-73
2022/12/15 01:25:53;;;;;;;11.65;3.58;;;;;;;;;;5015950;28;20049;-73
2022/12/15 01:28:19;;;;;;;3.20;2.63;;;;;;;;;;5002682;28;20072;-74
2022/12/15 01:30:45;;;;;;;4.07;2.97;;;;;;;;;;5016183;28;20040;-73
2022/12/15 01:33:11;;;;;;;13.80;4.03;;;;;;;;;;4993335;28;20129;-73
2022/12/15 01:35:37;;;;;;;5.90;3.28;;;;;;;;;;5014985;28;20033;-73
2022/12/15 01:38:02;;;;;;;11.52;3.13;;;;;;;;;;5021789;28;20037;-73
2022/12/15 01:40:45;;;;;;;8.13;3.80;;;;;;;;;;5016476;28;20091;-73
2022/12/15 01:43:13;;;;;;;5.03;1.63;;;;;;;;;;5014051;28;20029;-73
2022/12/15 01:46:01;;;;;;;6.88;2.88;;;;;;;;;;5017376;28;20038;-73
2022/12/15 01:48:41;;;;;;;2.97;2.43;;;;;;;;;;5014075;28;20060;-74
2022/12/15 01:51:14;;;;;;;5.85;2.47;;;;;;;;;;5022468;28;20042;-73
2022/12/15 01:54:07;;;;;;;3.78;1.85;;;;;;;;;;4997016;28;20040;-73
2022/12/15 01:56:37;;;;;;;3.38;2.17;;;;;;;;;;5018067;28;20054;-73
2022/12/15 01:59:04;;;;;;;5.47;3.22;;;;;;;;;;5023096;28;20111;-73
2022/12/15 02:01:30;;;;;;;5.97;3.07;;;;;;;;;;5027078;28;20034;-73
2022/12/15 02:03:55;;;;;;;5.43;2.43;;;;;;;;;;5024654;28;20045;-72
2022/12/15 02:06:24;;;;;;;5.28;2.33;;;;;;;;;;5015899;28;20080;-73
2022/12/15 02:08:52;;;;;;;4.78;3.10;;;;;;;;;;4996125;28;20099;-74
2022/12/15 02:11:23;;;;;;;3.45;2.42;;;;;;;;;;4998371;28;20069;-73
2022/12/15 02:13:49;;;;;;;3.23;2.33;;;;;;;;;;5016243;28;20067;-72
2022/12/15 02:16:29;;;;;;;3.08;2.22;;;;;;;;;;5015593;28;20546;-74
2022/12/15 02:18:58;;;;;;;9.38;2.40;;;;;;;;;;5009240;28;20039;-72
2022/12/15 02:21:36;;;;;;;3.75;2.05;;;;;;;;;;5013967;28;20128;-74
2022/12/15 02:24:29;;;;;;;3.03;2.03;;;;;;;;;;4983499;28;20061;-73
2022/12/15 02:27:33;;;;;;;4.20;2.75;;;;;;;;;;5015135;28;20034;-72
2022/12/15 02:30:21;;;;;;;2.80;2.28;;;;;;;;;;4986993;28;20056;-73
2022/12/15 02:33:16;;;;;;;2.20;1.35;;;;;;;;;;4995851;28;20433;-73
2022/12/15 02:36:24;;;;;;;14.90;3.08;;;;;;;;;;4998502;28;20042;-73
2022/12/15 02:38:50;;;;;;;6.33;2.73;;;;;;;;;;4996845;28;20088;-73
2022/12/15 02:41:36;;;;;;;2.30;1.33;;;;;;;;;;5016445;28;20050;-73
2022/12/15 02:44:09;;;;;;;15.80;2.00;;;;;;;;;;5015263;28;20052;-73
2022/12/15 02:47:08;;;;;;;3.95;1.73;;;;;;;;;;5026302;28;20041;-73
2022/12/15 02:49:55;;;;;;;1.55;1.20;;;;;;;;;;5012670;28;20052;-73
2022/12/15 02:52:38;;;;;;;3.93;2.33;;;;;;;;;;5014668;28;20045;-73
2022/12/15 02:55:49;;;;;;;1.50;1.40;;;;;;;;;;5012874;28;20099;-73
2022/12/15 02:58:15;;;;;;;6.05;1.85;;;;;;;;;;5013668;28;20417;-73
2022/12/15 03:00:45;;;;;;;3.90;2.15;;;;;;;;;;5018404;28;20037;-73
2022/12/15 03:03:12;;;;;;;0.75;0.75;;;;;;;;;;4999454;28;20034;-73
2022/12/15 03:05:39;;;;;;;3.15;2.17;;;;;;;;;;4996641;28;20038;-73
2022/12/15 03:08:04;;;;;;;6.85;1.90;;;;;;;;;;5027991;28;20069;-73
2022/12/15 03:10:29;;;;;;;5.30;2.25;;;;;;;;;;5014062;28;20499;-73
2022/12/15 03:12:55;;;;;;;2.00;1.38;;;;;;;;;;5014306;28;20092;-72
2022/12/15 03:15:20;;;;;;;3.08;1.75;;;;;;;;;;5013778;28;20050;-73
2022/12/15 03:17:46;;;;;;;4.27;1.87;;;;;;;;;;5027874;28;20532;-72
2022/12/15 03:20:11;;;;;;;2.30;1.90;;;;;;;;;;4996103;28;20124;-73
2022/12/15 03:22:37;;;;;;;3.90;2.22;;;;;;;;;;4995669;28;20107;-72
2022/12/15 03:25:03;;;;;;;4.38;2.45;;;;;;;;;;5012889;28;20072;-73
2022/12/15 03:27:28;;;;;;;2.75;2.25;;;;;;;;;;4993724;28;20038;-73
2022/12/15 03:29:54;;;;;;;2.05;1.33;;;;;;;;;;5015088;28;20087;-73
2022/12/15 03:32:19;;;;;;;2.70;1.70;;;;;;;;;;5013848;28;20038;-73
2022/12/15 03:34:45;;;;;;;3.45;2.80;;;;;;;;;;4995227;28;20121;-72
2022/12/15 03:37:10;;;;;;;2.38;1.58;;;;;;;;;;5012925;28;20038;-72
2022/12/15 03:39:36;;;;;;;3.53;1.98;;;;;;;;;;5012118;28;20022;-72
2022/12/15 03:42:01;;;;;;;2.50;2.27;;;;;;;;;;5018025;28;20545;-73
2022/12/15 03:44:26;;;;;;;5.20;2.83;;;;;;;;;;5012601;28;20056;-73
2022/12/15 03:46:52;;;;;;;2.60;1.77;;;;;;;;;;5013617;28;20105;-72
2022/12/15 03:49:17;;;;;;;1.55;1.38;;;;;;;;;;5011618;28;20072;-73
2022/12/15 03:51:43;;;;;;;6.70;2.40;;;;;;;;;;5022668;28;20041;-72
2022/12/15 03:54:11;;;;;;;2.03;1.83;;;;;;;;;;5009994;28;20159;-73
2022/12/15 03:56:36;;;;;;;4.43;1.73;;;;;;;;;;5012045;28;20552;-73
2022/12/15 03:59:02;;;;;;;3.07;1.63;;;;;;;;;;5014572;28;20117;-72
2022/12/15 04:01:29;;;;;;;3.95;1.90;;;;;;;;;;4994892;28;20163;-73
2022/12/15 04:03:55;;;;;;;1.97;1.63;;;;;;;;;;4994738;28;20125;-72
2022/12/15 04:06:21;;;;;;;4.10;2.30;;;;;;;;;;5013268;28;20050;-73
2022/12/15 04:08:46;;;;;;;3.67;2.43;;;;;;;;;;5011406;28;20516;-72
2022/12/15 04:11:12;;;;;;;3.60;2.13;;;;;;;;;;4994880;28;20070;-72
2022/12/15 04:13:37;;;;;;;1.90;1.27;;;;;;;;;;5020561;28;20030;-72
2022/12/15 04:16:03;;;;;;;4.57;2.27;;;;;;;;;;5013241;28;20102;-72
2022/12/15 04:18:28;;;;;;;2.17;1.48;;;;;;;;;;5010996;28;20041;-72
2022/12/15 04:20:54;;;;;;;1.50;0.90;;;;;;;;;;5018184;28;20045;-72
2022/12/15 04:23:20;;;;;;;3.20;1.65;;;;;;;;;;5014300;28;20113;-72
2022/12/15 05:31:53;;;;;;;1.40;1.27;;;;;;;;;;5009108;28;20072;-73
2022/12/15 05:34:25;;;;;;;0.57;0.47;;;;;;;;;;5014929;28;20073;-73
2022/12/15 05:36:50;;;;;;;1.57;1.30;;;;;;;;;;5015996;28;20514;-72
2022/12/15 05:39:16;;;;;;;2.87;1.07;;;;;;;;;;5014627;28;20069;-72
2022/12/15 05:41:42;;;;;;;9.53;1.67;;;;;;;;;;5016446;28;20466;-72
2022/12/15 05:44:08;;;;;;;1.20;0.90;;;;;;;;;;5014068;28;20116;-72
2022/12/15 05:46:33;;;;;;;1.30;1.00;;;;;;;;;;5004590;28;20034;-73
2022/12/15 05:49:01;;;;;;;4.00;1.80;;;;;;;;;;5014285;28;20041;-72
2022/12/15 05:51:26;;;;;;;3.03;0.90;;;;;;;;;;5014982;28;20437;-72
2022/12/15 05:53:51;;;;;;;3.37;2.33;;;;;;;;;;5014477;28;20046;-72
2022/12/15 05:56:17;;;;;;;4.87;2.23;;;;;;;;;;5018475;28;20061;-73
2022/12/15 05:58:42;;;;;;;2.90;1.33;;;;;;;;;;5017858;28;20046;-72
2022/12/15 06:01:15;;;;;;;3.80;1.40;;;;;;;;;;5015535;28;20092;-72
2022/12/15 06:03:41;;;;;;;1.90;1.27;;;;;;;;;;5014581;28;20421;-72
2022/12/15 06:06:08;;;;;;;3.00;1.93;;;;;;;;;;5015252;28;20042;-73
2022/12/15 06:08:37;;;;;;;14.47;1.80;;;;;;;;;;4996074;28;20034;-73
2022/12/15 06:11:03;;;;;;;4.93;3.37;;;;;;;;;;5001689;28;20393;-72
2022/12/15 06:13:30;;;;;;;1.90;1.40;;;;;;;;;;5014400;28;20042;-72
2022/12/15 06:16:08;;;;;;;3.40;1.40;;;;;;;;;;5013873;28;20049;-72
2022/12/15 06:18:36;;;;;;;2.67;1.60;;;;;;;;;;4995956;28;20034;-73
2022/12/15 06:21:07;;;;;;;5.07;1.60;;;;;;;;;;4993802;28;20042;-73
2022/12/15 06:23:33;;;;;;;1.73;1.10;;;;;;;;;;4991053;28;20517;-72
2022/12/15 06:25:59;;;;;;;3.67;2.27;;;;;;;;;;5020652;28;20112;-72
2022/12/15 06:28:25;;;;;;;3.37;1.40;;;;;;;;;;5003692;28;20056;-72
2022/12/15 06:30:54;;;;;;;1.43;1.30;;;;;;;;;;5019251;28;20037;-72
2022/12/15 06:33:21;;;;;;;1.43;1.03;;;;;;;;;;5001519;28;20038;-74
2022/12/15 06:35:47;;;;;;;2.53;1.23;;;;;;;;;;5015046;28;20034;-72
2022/12/15 06:38:13;;;;;;;1.63;1.27;;;;;;;;;;5013086;28;20421;-72
2022/12/15 06:40:38;;;;;;;4.90;1.10;;;;;;;;;;4997099;28;20041;-73
2022/12/15 06:43:06;;;;;;;1.97;1.43;;;;;;;;;;4995490;28;20045;-72
2022/12/15 06:45:31;;;;;;;1.60;1.50;;;;;;;;;;5014646;28;20060;-72
2022/12/15 06:47:57;;;;;;;1.47;1.00;;;;;;;;;;5028531;28;20077;-72
2022/12/15 06:50:22;;;;;;;7.33;2.00;;;;;;;;;;4996942;28;20543;-73
2022/12/15 06:52:48;;;;;;;3.33;2.03;;;;;;;;;;5013149;28;20030;-72
2022/12/15 06:55:13;;;;;;;3.42;1.90;;;;;;;;;;5014212;28;20042;-72
2022/12/15 06:57:39;;;;;;;3.47;1.33;;;;;;;;;;5014448;28;20390;-73
2022/12/15 07:00:05;;;;;;;17.87;1.63;;;;;;;;;;4998104;28;20053;-73
2022/12/15 07:02:31;;;;;;;4.63;2.43;;;;;;;;;;5014108;28;20038;-72
2022/12/15 07:04:57;;;;;;;3.37;1.13;;;;;;;;;;5014038;28;20038;-73
2022/12/15 07:07:23;;;;;;;3.83;1.10;;;;;;;;;;5017841;28;20117;-72
2022/12/15 07:09:48;;;;;;;1.40;1.10;;;;;;;;;;4995080;28;20378;-73
2022/12/15 07:12:13;;;;;;;2.83;1.50;;;;;;;;;;5014159;28;20441;-72
2022/12/15 07:14:39;;;;;;;2.10;1.27;;;;;;;;;;5011917;28;20064;-73
2022/12/15 07:17:04;;;;;;;2.77;1.47;;;;;;;;;;5014088;28;20482;-72
2022/12/15 07:19:30;;;;;;;1.23;1.13;;;;;;;;;;5012383;28;20073;-72
2022/12/15 07:21:56;;;;;;;2.37;1.77;;;;;;;;;;5014043;28;20496;-72
2022/12/15 07:24:22;;;;;;;4.53;1.37;;;;;;;;;;5012574;28;20042;-73
2022/12/15 07:26:47;;;;;;;5.30;1.67;;;;;;;;;;5014006;28;20049;-72
2022/12/15 07:29:13;;;;;;;0.83;0.60;;;;;;;;;;5013685;28;20052;-72
2022/12/15 07:31:38;;;;;;;2.07;1.47;;;;;;;;;;5000749;28;20038;-73
2022/12/15 07:34:04;;;;;;;2.07;1.27;;;;;;;;;;5009452;28;20038;-72
2022/12/15 07:36:29;;;;;;;4.40;2.07;;;;;;;;;;4994618;28;20092;-72
2022/12/15 07:38:59;;;;;;;1.47;0.97;;;;;;;;;;5012138;28;20083;-73
2022/12/15 07:41:25;;;;;;;4.97;1.40;;;;;;;;;;4996830;28;20033;-73
2022/12/15 07:43:50;;;;;;;1.60;1.43;;;;;;;;;;5010733;28;20500;-73
2022/12/15 07:46:17;;;;;;;1.00;0.93;;;;;;;;;;5018827;28;20037;-72
2022/12/15 07:48:42;;;;;;;2.77;1.07;;;;;;;;;;4994327;28;20057;-72
2022/12/15 07:51:08;;;;;;;1.57;1.07;;;;;;;;;;5013260;28;20045;-72
2022/12/15 07:53:34;;;;;;;11.17;1.93;;;;;;;;;;5012569;28;20050;-74
2022/12/15 07:55:59;;;;;;;2.87;1.20;;;;;;;;;;5015712;28;20037;-72
2022/12/15 07:58:26;;;;;;;2.37;1.43;;;;;;;;;;5013393;28;20116;-73
2022/12/15 08:00:52;;;;;;;1.80;1.10;;;;;;;;;;5014846;28;20045;-72
2022/12/15 08:03:17;;;;;;;0.87;0.67;;;;;;;;;;5027528;28;20038;-73
2022/12/15 08:05:43;;;;;;;2.63;1.63;;;;;;;;;;4998682;28;20026;-72
2022/12/15 08:08:10;;;;;;;4.27;1.80;;;;;;;;;;5011605;28;20108;-72
2022/12/15 08:10:38;;;;;;;2.07;1.43;;;;;;;;;;5012634;28;20080;-73
2022/12/15 08:13:03;;;;;;;1.77;1.30;;;;;;;;;;5001131;28;20152;-72
2022/12/15 08:15:28;;;;;;;1.47;1.23;;;;;;;;;;5012212;28;20120;-72
2022/12/15 08:17:54;;;;;;;3.80;1.73;;;;;;;;;;5012104;28;20044;-72
2022/12/15 08:20:20;;;;;;;1.53;1.13;;;;;;;;;;5012504;28;20022;-73
2022/12/15 08:22:45;;;;;;;6.83;2.33;;;;;;;;;;5012110;28;20527;-72
2022/12/15 08:25:11;;;;;;;1.53;1.17;;;;;;;;;;4997222;28;20037;-74
2022/12/15 08:27:36;;;;;;;1.97;1.30;;;;;;;;;;4678471;28;20048;-73
2022/12/15 08:30:02;;;;;;;3.70;2.40;;;;;;;;;;4999159;28;20482;-72
2022/12/15 08:32:27;;;;;;;0.80;0.60;;;;;;;;;;4786888;28;20134;-72
2022/12/15 08:34:53;;;;;;;4.47;1.63;;;;;;;;;;4950102;28;20062;-72
2022/12/15 08:37:18;;;;;;;4.90;2.27;;;;;;;;;;4995806;28;20070;-73
2022/12/15 08:39:43;;;;;;;1.30;1.20;;;;;;;;;;4980474;28;20042;-73
2022/12/15 08:42:09;;;;;;;1.43;1.20;;;;;;;;;;4781108;28;20586;-72
2022/12/15 08:44:34;;;;;;;1.23;0.80;;;;;;;;;;4934073;28;20042;-73
2022/12/15 08:47:00;;;;;;;1.50;1.23;;;;;;;;;;4992171;28;20038;-71
2022/12/15 08:49:25;;;;;;;1.00;0.80;;;;;;;;;;4534737;28;20049;-72
2022/12/15 08:51:50;;;;;;;9.20;2.13;;;;;;;;;;5027010;28;20073;-72
2022/12/15 08:54:17;;;;;;;2.33;1.43;;;;;;;;;;4849420;28;20060;-73
2022/12/15 08:56:43;;;;;;;3.17;1.80;;;;;;;;;;4971051;28;20389;-72
2022/12/15 08:59:08;;;;;;;2.20;1.35;;;;;;;;;;4757012;28;20141;-73
2022/12/15 09:01:38;;;;;;;3.17;1.42;;;;;;;;;;4999173;28;20033;-72
2022/12/15 09:04:04;;;;;;;3.40;1.55;;;;;;;;;;5025993;28;20033;-73
2022/12/15 09:06:31;;;;;;;5.20;2.50;;;;;;;;;;5000563;28;20033;-74
2022/12/15 09:08:59;;;;;;;3.58;2.15;;;;;;;;;;4993228;28;20458;-73
2022/12/15 09:11:26;;;;;;;5.53;2.65;;;;;;;;;;5020924;28;20481;-73
2022/12/15 09:13:52;;;;;;;11.02;3.00;;;;;;;;;;5002575;28;20516;-72
2022/12/15 09:16:18;;;;;;;8.27;3.38;;;;;;;;;;5028200;28;20073;-74
2022/12/15 09:18:47;;;;;;;8.68;2.80;;;;;;;;;;5015006;28;20025;-73
2022/12/15 09:21:13;;;;;;;9.93;3.00;;;;;;;;;;5019752;28;20045;-73
2022/12/15 09:23:39;;;;;;;6.53;3.15;;;;;;;;;;5026042;28;20471;-73
2022/12/15 09:26:07;;;;;;;9.25;3.72;;;;;;;;;;5031437;28;20038;-74
2022/12/15 09:28:32;;;;;;;9.50;3.67;;;;;;;;;;5006866;28;20037;-73
2022/12/15 09:31:10;;;;;;;5.68;3.20;;;;;;;;;;5000162;28;20034;-73
2022/12/15 09:33:36;;;;;;;9.10;3.80;;;;;;;;;;5013857;28;20048;-73
2022/12/15 09:36:02;;;;;;;7.50;3.72;;;;;;;;;;5013006;28;20443;-73
2022/12/15 09:38:28;;;;;;;11.45;3.20;;;;;;;;;;5021394;28;20116;-73
2022/12/15 09:40:53;;;;;;;6.80;2.38;;;;;;;;;;5023082;28;20061;-73
2022/12/15 09:43:22;;;;;;;6.07;2.53;;;;;;;;;;5017717;28;20489;-73
2022/12/15 09:46:15;;;;;;;10.13;2.95;;;;;;;;;;5023126;28;20040;-74
2022/12/15 09:48:42;;;;;;;7.70;3.20;;;;;;;;;;5010943;28;20132;-73
2022/12/15 09:51:11;;;;;;;6.03;2.80;;;;;;;;;;5032082;28;20041;-73
2022/12/15 09:53:37;;;;;;;6.85;2.85;;;;;;;;;;5023738;28;20402;-73
2022/12/15 09:56:07;;;;;;;6.20;2.55;;;;;;;;;;5009401;28;20045;-73
2022/12/15 09:58:41;;;;;;;14.48;3.08;;;;;;;;;;5018117;28;20034;-73
2022/12/15 10:01:09;;;;;;;8.00;2.85;;;;;;;;;;5017457;28;20484;-73
2022/12/15 10:03:53;;;;;;;7.00;2.88;;;;;;;;;;5012548;28;20413;-73
2022/12/15 10:06:24;;;;;;;15.23;3.63;;;;;;;;;;5009002;28;20133;-73
2022/12/15 10:08:55;;;;;;;6.38;2.70;;;;;;;;;;5003078;28;20065;-74
2022/12/15 10:11:34;;;;;;;6.40;2.42;;;;;;;;;;4999250;28;20064;-74
2022/12/15 10:14:18;;;;;;;6.85;2.90;;;;;;;;;;5029342;28;20061;-74
2022/12/15 10:17:08;;;;;;;4.22;2.08;;;;;;;;;;5004884;28;20045;-72
2022/12/15 10:19:44;;;;;;;6.72;2.15;;;;;;;;;;5021100;28;20036;-73
2022/12/15 10:22:22;;;;;;;7.95;2.58;;;;;;;;;;5018547;28;20128;-73
2022/12/15 10:24:48;;;;;;;7.15;2.00;;;;;;;;;;5017507;28;20029;-73
2022/12/15 10:27:20;;;;;;;11.02;2.28;;;;;;;;;;5029171;28;20030;-73
2022/12/15 10:29:49;;;;;;;8.13;2.28;;;;;;;;;;5016732;28;20084;-73
2022/12/15 10:32:20;;;;;;;5.65;3.10;;;;;;;;;;5015351;28;20069;-73
2022/12/15 10:34:45;;;;;;;10.77;2.47;;;;;;;;;;5031837;28;20114;-73
2022/12/15 10:37:17;;;;;;;7.85;2.88;;;;;;;;;;5016831;28;20108;-73
2022/12/15 10:39:45;;;;;;;3.42;2.08;;;;;;;;;;5020301;28;20041;-73
2022/12/15 10:42:31;;;;;;;5.45;2.70;;;;;;;;;;5015313;28;20478;-73
2022/12/15 10:44:57;;;;;;;4.10;1.98;;;;;;;;;;5027183;28;20041;-73
2022/12/15 10:47:30;;;;;;;5.80;2.78;;;;;;;;;;5023259;28;20488;-73
2022/12/15 10:50:16;;;;;;;9.23;2.85;;;;;;;;;;5001908;28;20050;-73
2022/12/15 10:52:42;;;;;;;4.60;2.22;;;;;;;;;;5031991;28;20030;-73
2022/12/15 10:55:36;;;;;;;6.60;3.33;;;;;;;;;;4989494;28;20389;-73
2022/12/15 10:58:15;;;;;;;9.63;4.10;;;;;;;;;;5013836;28;20037;-73
2022/12/15 11:00:40;;;;;;;8.27;4.22;;;;;;;;;;5003952;28;20088;-73
2022/12/15 11:03:23;;;;;;;14.18;3.15;;;;;;;;;;5026960;28;20030;-73
2022/12/15 11:05:55;;;;;;;7.50;3.80;;;;;;;;;;4998279;28;20367;-73
2022/12/15 11:08:22;;;;;;;7.70;4.05;;;;;;;;;;5018596;28;20477;-74
2022/12/15 11:13:38;;;;;;;7.63;2.72;;;;;;;;;;5026925;28;20107;-73
2022/12/15 11:16:17;;;;;;;4.07;2.45;;;;;;;;;;5037774;28;20037;-73
2022/12/15 11:19:05;;;;;;;6.07;2.97;;;;;;;;;;5021584;28;20048;-74
2022/12/15 11:21:51;;;;;;;7.85;2.97;;;;;;;;;;5019735;28;20037;-73
2022/12/15 11:24:36;;;;;;;6.05;2.85;;;;;;;;;;5002977;28;20045;-73
2022/12/15 11:27:05;;;;;;;9.95;4.43;;;;;;;;;;5001091;28;20385;-73
2022/12/15 11:30:01;;;;;;;13.52;3.92;;;;;;;;;;5022999;28;20509;-73
2022/12/15 11:32:30;;;;;;;9.82;3.60;;;;;;;;;;5019893;28;20508;-73
2022/12/15 11:34:55;;;;;;;12.75;4.13;;;;;;;;;;5013368;28;20401;-73
2022/12/15 11:38:08;;;;;;;9.60;3.47;;;;;;;;;;5016400;28;20069;-73
2022/12/15 11:40:40;;;;;;;13.02;3.97;;;;;;;;;;4997841;28;20498;-73
2022/12/15 11:43:58;;;;;;;11.68;3.33;;;;;;;;;;4996176;28;20029;-73
2022/12/15 11:46:26;;;;;;;5.40;2.22;;;;;;;;;;4969274;28;20524;-73
2022/12/15 11:48:56;;;;;;;6.40;2.83;;;;;;;;;;4976415;28;20058;-73
2022/12/15 11:51:34;;;;;;;8.73;2.65;;;;;;;;;;5000311;28;20120;-74
2022/12/15 11:54:17;;;;;;;10.02;3.20;;;;;;;;;;5027518;28;20049;-73
2022/12/15 11:56:48;;;;;;;5.78;2.83;;;;;;;;;;4996400;28;20033;-74
2022/12/15 11:59:29;;;;;;;12.65;2.58;;;;;;;;;;5025646;28;20033;-73
2022/12/15 12:02:16;;;;;;;6.43;2.22;;;;;;;;;;5023226;28;20048;-73
2022/12/15 12:05:00;;;;;;;3.00;1.42;;;;;;;;;;5016837;28;20374;-73
2022/12/15 12:07:35;;;;;;;7.00;2.10;;;;;;;;;;5006054;28;20037;-73
2022/12/15 12:10:13;;;;;;;2.80;1.23;;;;;;;;;;5001019;28;20037;-73
2022/12/15 12:12:41;;;;;;;7.40;1.38;;;;;;;;;;5014034;28;20084;-74
2022/12/15 12:15:35;;;;;;;5.47;1.70;;;;;;;;;;5022615;28;20041;-73
2022/12/15 12:18:06;;;;;;;6.43;1.40;;;;;;;;;;5024567;28;20042;-73
2022/12/15 12:20:51;;;;;;;4.57;1.40;;;;;;;;;;5018598;28;20275;-73
2022/12/15 12:23:30;;;;;;;2.85;1.20;;;;;;;;;;4998769;28;20045;-74
2022/12/15 12:26:25;;;;;;;9.60;1.17;;;;;;;;;;4998600;28;20132;-73
2022/12/15 12:29:10;;;;;;;6.15;1.50;;;;;;;;;;5021559;28;20103;-74
2022/12/15 12:32:05;;;;;;;9.38;1.45;;;;;;;;;;5015535;28;20076;-73
2022/12/15 12:34:38;;;;;;;4.53;1.60;;;;;;;;;;5015403;28;20041;-73
2022/12/15 12:37:20;;;;;;;4.95;1.20;;;;;;;;;;5018132;28;20053;-73
2022/12/15 12:39:47;;;;;;;2.15;1.00;;;;;;;;;;5027531;28;20076;-73
2022/12/15 12:42:20;;;;;;;3.55;1.30;;;;;;;;;;5007739;28;20041;-74
2022/12/15 12:44:45;;;;;;;2.85;1.42;;;;;;;;;;5033086;28;20053;-73
2022/12/15 12:47:14;;;;;;;3.90;1.25;;;;;;;;;;5031971;28;20157;-73
2022/12/15 12:49:46;;;;;;;6.32;1.75;;;;;;;;;;5027776;28;20052;-73
2022/12/15 12:52:20;;;;;;;8.82;1.55;;;;;;;;;;5013663;28;20504;-73
2022/12/15 12:54:57;;;;;;;3.67;1.45;;;;;;;;;;5014454;28;20040;-73
2022/12/15 12:57:29;;;;;;;9.30;1.50;;;;;;;;;;5026058;28;20061;-73
2022/12/15 13:00:05;;;;;;;10.57;1.23;;;;;;;;;;5029327;28;20469;-73
2022/12/15 13:02:30;;;;;;;2.03;1.15;;;;;;;;;;5043870;28;20034;-73
2022/12/15 13:05:28;;;;;;;2.88;1.20;;;;;;;;;;5034550;28;20037;-73
2022/12/15 13:08:05;;;;;;;6.28;1.20;;;;;;;;;;5031611;28;20025;-73
2022/12/15 13:10:39;;;;;;;2.50;1.30;;;;;;;;;;5012880;28;20045;-73
2022/12/15 13:13:07;;;;;;;6.03;1.50;;;;;;;;;;5023734;28;20042;-74
2022/12/15 13:15:36;;;;;;;7.65;1.48;;;;;;;;;;5021043;28;20116;-73
2022/12/15 13:18:05;;;;;;;6.53;2.08;;;;;;;;;;5017179;28;20029;-73
2022/12/15 13:20:36;;;;;;;3.03;1.27;;;;;;;;;;5001208;28;20140;-73
2022/12/15 13:23:24;;;;;;;4.78;1.40;;;;;;;;;;5002646;28;20140;-73
2022/12/15 13:25:52;;;;;;;2.97;1.33;;;;;;;;;;4999746;28;20137;-74
2022/12/15 13:28:22;;;;;;;1.95;1.02;;;;;;;;;;5026587;28;20473;-74
2022/12/15 13:31:19;;;;;;;5.20;1.05;;;;;;;;;;5016809;28;20096;-74
2022/12/15 13:33:48;;;;;;;14.00;2.38;;;;;;;;;;5023919;28;20060;-73
2022/12/15 13:36:38;;;;;;;4.15;1.30;;;;;;;;;;5015282;28;20041;-74
2022/12/15 13:39:11;;;;;;;5.05;1.02;;;;;;;;;;5012202;28;20387;-73
2022/12/15 13:41:36;;;;;;;3.63;1.50;;;;;;;;;;5015300;28;20030;-74
2022/12/15 13:44:25;;;;;;;5.15;1.52;;;;;;;;;;5001388;28;20591;-73
2022/12/15 13:46:53;;;;;;;3.00;1.25;;;;;;;;;;4999932;28;20099;-73
2022/12/15 13:49:28;;;;;;;4.43;1.67;;;;;;;;;;5006618;28;20056;-73
2022/12/15 13:52:27;;;;;;;2.33;1.17;;;;;;;;;;4992628;28;20041;-73
2022/12/15 13:54:56;;;;;;;13.63;2.05;;;;;;;;;;4973711;28;20045;-73
2022/12/15 13:57:24;;;;;;;4.57;1.45;;;;;;;;;;5013032;28;20033;-73
2022/12/15 14:00:17;;;;;;;6.25;1.10;;;;;;;;;;5023807;28;20065;-74
2022/12/15 14:02:43;;;;;;;2.60;1.30;;;;;;;;;;4982656;28;20125;-74
2022/12/15 14:05:21;;;;;;;3.45;1.52;;;;;;;;;;5019288;28;20293;-74
2022/12/15 14:07:49;;;;;;;5.35;1.65;;;;;;;;;;4995715;28;20118;-74
2022/12/15 14:10:18;;;;;;;5.18;1.48;;;;;;;;;;5021597;28;20492;-73
2022/12/15 14:12:44;;;;;;;2.63;1.38;;;;;;;;;;5002326;28;20453;-74
2022/12/15 14:15:26;;;;;;;11.40;1.98;;;;;;;;;;4998132;28;20049;-74
2022/12/15 14:17:53;;;;;;;8.40;2.03;;;;;;;;;;4994084;28;20092;-73
2022/12/15 14:20:28;;;;;;;3.38;1.20;;;;;;;;;;5019778;28;20050;-73
2022/12/15 14:22:54;;;;;;;2.05;1.27;;;;;;;;;;5005150;28;20073;-73
2022/12/15 14:25:24;;;;;;;4.13;1.25;;;;;;;;;;5020289;28;20127;-73
2022/12/15 14:27:50;;;;;;;2.55;1.35;;;;;;;;;;5022340;28;20374;-73
2022/12/15 14:30:25;;;;;;;6.97;1.60;;;;;;;;;;5013915;28;20033;-73
2022/12/15 14:33:12;;;;;;;2.50;1.23;;;;;;;;;;5036325;28;20049;-74
2022/12/15 14:35:47;;;;;;;4.85;1.40;;;;;;;;;;5013849;28;20033;-74
2022/12/15 14:38:50;;;;;;;3.78;1.67;;;;;;;;;;5016500;28;20041;-73
2022/12/15 14:41:27;;;;;;;17.45;2.72;;;;;;;;;;5002007;28;20137;-73
2022/12/15 14:44:13;;;;;;;4.53;1.63;;;;;;;;;;5027990;28;20080;-73
2022/12/15 14:46:39;;;;;;;11.50;2.03;;;;;;;;;;5034938;28;20426;-73
2022/12/15 14:49:08;;;;;;;4.07;1.67;;;;;;;;;;5031864;28;20128;-74
2022/12/15 14:51:45;;;;;;;10.70;2.03;;;;;;;;;;5020280;28;20055;-73
2022/12/15 14:54:31;;;;;;;6.28;1.98;;;;;;;;;;5011884;28;20489;-73
2022/12/15 14:57:20;;;;;;;3.15;1.80;;;;;;;;;;5017396;28;20037;-73
2022/12/15 14:59:50;;;;;;;5.45;1.73;;;;;;;;;;4997297;28;20029;-73
2022/12/15 15:02:21;;;;;;;6.65;2.55;;;;;;;;;;5001733;28;20037;-73
2022/12/15 15:05:02;;;;;;;4.38;2.10;;;;;;;;;;5018717;28;20485;-74
2022/12/15 15:07:30;;;;;;;3.00;1.38;;;;;;;;;;5034223;28;20045;-73
2022/12/15 15:09:55;;;;;;;5.13;2.25;;;;;;;;;;5022275;28;20037;-73
2022/12/15 15:12:23;;;;;;;5.25;1.65;;;;;;;;;;5031527;28;20524;-74
2022/12/15 15:14:57;;;;;;;4.15;1.75;;;;;;;;;;5022021;28;20144;-73
2022/12/15 15:17:33;;;;;;;6.18;1.88;;;;;;;;;;5027901;28;20068;-74
2022/12/15 15:20:02;;;;;;;2.15;1.00;;;;;;;;;;5003118;28;20110;-73
2022/12/15 15:22:30;;;;;;;5.65;1.52;;;;;;;;;;5022682;28;20464;-73
2022/12/15 15:24:55;;;;;;;4.55;1.77;;;;;;;;;;5027745;28;20025;-75
2022/12/15 15:27:30;;;;;;;14.38;2.83;;;;;;;;;;4995224;28;20409;-74
2022/12/15 15:30:20;;;;;;;4.32;1.83;;;;;;;;;;5010714;28;20085;-73
2022/12/15 15:32:50;;;;;;;6.88;2.13;;;;;;;;;;4993626;28;20038;-74
2022/12/15 15:35:16;;;;;;;6.38;1.95;;;;;;;;;;5009992;28;20049;-73
2022/12/15 15:37:41;;;;;;;3.38;2.03;;;;;;;;;;5016690;28;20116;-73
2022/12/15 15:40:10;;;;;;;8.13;2.17;;;;;;;;;;5023378;28;20041;-73
2022/12/15 15:42:35;;;;;;;5.07;1.95;;;;;;;;;;4970534;28;20045;-73
2022/12/15 15:45:01;;;;;;;6.32;1.90;;;;;;;;;;5002329;28;20033;-74
2022/12/15 15:47:26;;;;;;;2.28;1.42;;;;;;;;;;5009525;28;20111;-73
2022/12/15 15:49:53;;;;;;;4.32;1.35;;;;;;;;;;5024764;28;20038;-73
2022/12/15 15:52:19;;;;;;;2.95;1.35;;;;;;;;;;4997734;28;20044;-73
2022/12/15 15:54:44;;;;;;;4.82;1.50;;;;;;;;;;5017157;28;20034;-74
2022/12/15 15:57:14;;;;;;;5.80;1.45;;;;;;;;;;5019242;28;20069;-74
2022/12/15 15:59:42;;;;;;;3.45;1.42;;;;;;;;;;5006815;28;20048;-73
2022/12/15 16:02:09;;;;;;;5.03;1.50;;;;;;;;;;5016839;28;20571;-73
2022/12/15 16:04:36;;;;;;;3.63;1.58;;;;;;;;;;5041722;28;20069;-73
2022/12/15 16:07:02;;;;;;;6.07;1.40;;;;;;;;;;5014954;28;20047;-73
2022/12/15 16:09:28;;;;;;;4.13;1.67;;;;;;;;;;5029521;28;20107;-73
2022/12/15 16:11:53;;;;;;;5.72;1.73;;;;;;;;;;5036087;28;20492;-73
2022/12/15 16:14:18;;;;;;;8.02;1.60;;;;;;;;;;5022618;28;20033;-73
2022/12/15 16:16:44;;;;;;;9.65;1.15;;;;;;;;;;5022670;28;20520;-73
2022/12/15 16:19:11;;;;;;;5.85;1.77;;;;;;;;;;5017164;28;20050;-73
2022/12/15 16:21:37;;;;;;;5.93;2.30;;;;;;;;;;5024099;28;20025;-73
2022/12/15 16:24:07;;;;;;;12.10;1.83;;;;;;;;;;4992052;28;20124;-73
2022/12/15 16:26:36;;;;;;;2.25;1.05;;;;;;;;;;5034176;28;20045;-73
2022/12/15 16:29:01;;;;;;;5.68;1.73;;;;;;;;;;5019278;28;20037;-74
2022/12/15 16:31:31;;;;;;;4.10;1.90;;;;;;;;;;5020508;28;20045;-73
2022/12/15 16:33:57;;;;;;;9.18;2.00;;;;;;;;;;5004362;28;20552;-73
2022/12/15 16:36:22;;;;;;;3.83;1.73;;;;;;;;;;5025151;28;20096;-73
2022/12/15 16:38:48;;;;;;;3.50;1.63;;;;;;;;;;5037905;28;20092;-74
2022/12/15 16:41:15;;;;;;;4.15;1.98;;;;;;;;;;5040552;28;20052;-73
2022/12/15 16:43:41;;;;;;;2.60;1.50;;;;;;;;;;5024287;28;20030;-73
2022/12/15 16:46:10;;;;;;;6.30;1.65;;;;;;;;;;5020311;28;20399;-73
2022/12/15 16:48:35;;;;;;;2.90;1.60;;;;;;;;;;5011495;28;20045;-73
2022/12/15 16:51:01;;;;;;;2.28;1.15;;;;;;;;;;5021568;28;20068;-73
2022/12/15 16:53:35;;;;;;;13.05;1.73;;;;;;;;;;5024250;28;20034;-73
2022/12/15 16:56:04;;;;;;;1.70;1.08;;;;;;;;;;5035874;28;20037;-73
2022/12/15 16:58:30;;;;;;;7.57;1.60;;;;;;;;;;5028745;28;20119;-73
2022/12/15 17:00:55;;;;;;;3.17;1.40;;;;;;;;;;5011849;28;20070;-73
2022/12/15 17:03:27;;;;;;;7.50;2.30;;;;;;;;;;5011598;28;20045;-73
2022/12/15 17:05:55;;;;;;;1.60;1.10;;;;;;;;;;5018044;28;20041;-73
2022/12/15 17:08:37;;;;;;;3.58;1.70;;;;;;;;;;5043410;28;20038;-73
2022/12/15 17:11:03;;;;;;;2.78;1.50;;;;;;;;;;5035362;28;20123;-73
2022/12/15 17:13:35;;;;;;;2.42;1.35;;;;;;;;;;5027205;28;20112;-73
2022/12/15 17:16:01;;;;;;;2.67;1.17;;;;;;;;;;5027829;28;20032;-73
2022/12/15 17:18:27;;;;;;;4.15;1.90;;;;;;;;;;5025333;28;20038;-73
2022/12/15 17:21:02;;;;;;;9.88;1.75;;;;;;;;;;5026105;28;20049;-73
2022/12/15 17:23:28;;;;;;;8.75;2.10;;;;;;;;;;5030468;28;20042;-74